Map

Track Data

SID SEASON NUMBER BASIN SUBBASIN NAME ISO_TIME NATURE LAT LON WMO_WIND WMO_PRES WMO_AGENCY TRACK_TYPE DIST2LAND LANDFALL IFLAG USA_AGENCY USA_ATCF_ID USA_LAT USA_LON USA_RECORD USA_STATUS USA_WIND USA_PRES USA_SSHS USA_R34_NE USA_R34_SE USA_R34_SW USA_R34_NW USA_R50_NE USA_R50_SE USA_R50_SW USA_R50_NW USA_R64_NE USA_R64_SE USA_R64_SW USA_R64_NW USA_POCI USA_ROCI USA_RMW USA_EYE TOKYO_LAT TOKYO_LON TOKYO_GRADE TOKYO_WIND TOKYO_PRES TOKYO_R50_DIR TOKYO_R50_LONG TOKYO_R50_SHORT TOKYO_R30_DIR TOKYO_R30_LONG TOKYO_R30_SHORT TOKYO_LAND CMA_LAT CMA_LON CMA_CAT CMA_WIND CMA_PRES HKO_LAT HKO_LON HKO_CAT HKO_WIND HKO_PRES NEWDELHI_LAT NEWDELHI_LON NEWDELHI_GRADE NEWDELHI_WIND NEWDELHI_PRES NEWDELHI_CI NEWDELHI_DP NEWDELHI_POCI REUNION_LAT REUNION_LON REUNION_TYPE REUNION_WIND REUNION_PRES REUNION_TNUM REUNION_CI REUNION_RMW REUNION_R34_NE REUNION_R34_SE REUNION_R34_SW REUNION_R34_NW REUNION_R50_NE REUNION_R50_SE REUNION_R50_SW REUNION_R50_NW REUNION_R64_NE REUNION_R64_SE REUNION_R64_SW REUNION_R64_NW BOM_LAT BOM_LON BOM_TYPE BOM_WIND BOM_PRES BOM_TNUM BOM_CI BOM_RMW BOM_R34_NE BOM_R34_SE BOM_R34_SW BOM_R34_NW BOM_R50_NE BOM_R50_SE BOM_R50_SW BOM_R50_NW BOM_R64_NE BOM_R64_SE BOM_R64_SW BOM_R64_NW BOM_ROCI BOM_POCI BOM_EYE BOM_POS_METHOD BOM_PRES_METHOD NADI_LAT NADI_LON NADI_CAT NADI_WIND NADI_PRES WELLINGTON_LAT WELLINGTON_LON WELLINGTON_WIND WELLINGTON_PRES DS824_LAT DS824_LON DS824_STAGE DS824_WIND DS824_PRES TD9636_LAT TD9636_LON TD9636_STAGE TD9636_WIND TD9636_PRES TD9635_LAT TD9635_LON TD9635_WIND TD9635_PRES TD9635_ROCI NEUMANN_LAT NEUMANN_LON NEUMANN_CLASS NEUMANN_WIND NEUMANN_PRES MLC_LAT MLC_LON MLC_CLASS MLC_WIND MLC_PRES USA_GUST BOM_GUST BOM_GUST_PER REUNION_GUST REUNION_GUST_PER USA_SEAHGT USA_SEARAD_NE USA_SEARAD_SE USA_SEARAD_SW USA_SEARAD_NW STORM_SPEED STORM_DIR
1938129N10125 1938 25 WP MM NOT_NAMED 1938-05-09 10:00:00 NR 10.4000 125.400 main 15 0 __________O___ -1 10.4000 125.400 2 7 313
1938129N10125 1938 25 WP MM NOT_NAMED 1938-05-09 12:00:00 NR 10.5539 125.230 main 0 0 __________P___ -1 10.5539 125.230 2 7 313
1938129N10125 1938 25 WP MM NOT_NAMED 1938-05-09 15:00:00 NR 10.7894 124.977 main 0 0 __________P___ -1 10.7894 124.977 2 7 314
1938129N10125 1938 25 WP MM NOT_NAMED 1938-05-09 18:00:00 NR 11.0372 124.726 main 0 0 __________P___ -1 11.0372 124.726 2 7 317
1938129N10125 1938 25 WP MM NOT_NAMED 1938-05-09 21:00:00 NR 11.3050 124.480 main 0 0 __________P___ -1 11.3050 124.480 2 7 319
1938129N10125 1938 25 WP MM NOT_NAMED 1938-05-09 22:00:00 NR 11.4000 124.400 main 0 0 __________O___ -1 11.4000 124.400 2 8 322
1938129N10125 1938 25 WP MM NOT_NAMED 1938-05-10 00:00:00 NR 11.5994 124.241 main 15 0 __________P___ -1 11.5994 124.241 2 8 323
1938129N10125 1938 25 WP MM NOT_NAMED 1938-05-10 03:00:00 NR 11.9176 124.003 main 0 0 __________P___ -1 11.9176 124.003 2 8 324
1938129N10125 1938 25 WP MM NOT_NAMED 1938-05-10 06:00:00 NR 12.2502 123.757 main 11 10 __________P___ -1 12.2502 123.757 2 8 323
1938129N10125 1938 25 WP MM NOT_NAMED 1938-05-10 09:00:00 NR 12.5879 123.493 main 15 11 __________P___ -1 12.5879 123.493 2 9 322
1938129N10125 1938 25 WP MM NOT_NAMED 1938-05-10 10:00:00 NR 12.7000 123.400 main 22 15 __________O___ -1 12.7000 123.400 2 9 317
1938129N10125 1938 25 WP MM NOT_NAMED 1938-05-10 12:00:00 NR 12.9142 123.185 main 15 10 __________P___ -1 12.9142 123.185 2 9 315
1938129N10125 1938 25 WP MM NOT_NAMED 1938-05-10 15:00:00 NR 13.2353 122.843 main 10 0 __________P___ -1 13.2353 122.843 2 9 314
1938129N10125 1938 25 WP MM NOT_NAMED 1938-05-10 18:00:00 NR 13.5590 122.502 main 0 0 __________P___ -1 13.5590 122.502 2 9 316
1938129N10125 1938 25 WP MM NOT_NAMED 1938-05-10 21:00:00 NR 13.8884 122.192 main 0 0 __________P___ -1 13.8884 122.192 2 9 319
1938129N10125 1938 25 WP MM NOT_NAMED 1938-05-10 22:00:00 NR 14.0000 122.100 main 11 10 __________O___ -1 14.0000 122.100 2 8 322
1938129N10125 1938 25 WP MM NOT_NAMED 1938-05-11 00:00:00 NR 14.2223 121.925 main 15 10 __________P___ -1 14.2223 121.925 2 8 325
1938129N10125 1938 25 WP MM NOT_NAMED 1938-05-11 03:00:00 NR 14.5620 121.701 main 10 0 __________P___ -1 14.5620 121.701 2 8 331
1938129N10125 1938 25 WP MM NOT_NAMED 1938-05-11 06:00:00 NR 14.9120 121.530 main 0 0 __________P___ -1 14.9120 121.530 2 8 339
1938129N10125 1938 25 WP MM NOT_NAMED 1938-05-11 09:00:00 NR 15.2754 121.421 main 0 0 __________P___ -1 15.2754 121.421 2 8 346
1938129N10125 1938 25 WP MM NOT_NAMED 1938-05-11 10:00:00 NR 15.4000 121.400 main 0 0 __________O___ -1 15.4000 121.400 2 8 354
1938129N10125 1938 25 WP MM NOT_NAMED 1938-05-11 12:00:00 NR 15.6840 121.374 main 0 0 __________P___ -1 15.6840 121.374 2 9 0
1938129N10125 1938 25 WP MM NOT_NAMED 1938-05-11 15:00:00 NR 16.1234 121.391 main 0 0 __________P___ -1 16.1234 121.391 2 9 5
1938129N10125 1938 25 WP MM NOT_NAMED 1938-05-11 18:00:00 NR 16.5426 121.460 main 0 0 __________P___ -1 16.5426 121.460 2 8 12
1938129N10125 1938 25 WP MM NOT_NAMED 1938-05-11 21:00:00 NR 16.9011 121.562 main 0 0 __________P___ -1 16.9011 121.562 2 7 16
1938129N10125 1938 25 WP MM NOT_NAMED 1938-05-11 22:00:00 NR 17.0000 121.600 main 0 0 __________O___ -1 17.0000 121.600 2 5 21
1938129N10125 1938 25 WP MM NOT_NAMED 1938-05-12 00:00:00 NR 17.1514 121.666 main 0 0 __________P___ -1 17.1514 121.666 2 4 30
1938129N10125 1938 25 WP MM NOT_NAMED 1938-05-12 03:00:00 NR 17.3092 121.785 main 0 0 __________P___ -1 17.3092 121.785 2 4 43
1938129N10125 1938 25 WP MM NOT_NAMED 1938-05-12 06:00:00 NR 17.4089 121.917 main 0 0 __________P___ -1 17.4089 121.917 2 3 56
1938129N10125 1938 25 WP MM NOT_NAMED 1938-05-12 09:00:00 NR 17.4786 122.055 main 0 0 __________P___ -1 17.4786 122.055 2 3 62
1938129N10125 1938 25 WP MM NOT_NAMED 1938-05-12 10:00:00 NR 17.5000 122.100 main 0 0 __________O___ -1 17.5000 122.100 2 2 50
1938129N10125 1938 25 WP MM NOT_NAMED 1938-05-12 12:00:00 NR 17.5506 122.147 main 0 10 __________P___ -1 17.5506 122.147 2 2 44
1938129N10125 1938 25 WP MM NOT_NAMED 1938-05-12 15:00:00 NR 17.6137 122.216 main 10 10 __________P___ -1 17.6137 122.216 2 2 52
1938129N10125 1938 25 WP MM NOT_NAMED 1938-05-12 18:00:00 NR 17.6784 122.323 main 21 21 __________P___ -1 17.6784 122.323 2 3 62
1938129N10125 1938 25 WP MM NOT_NAMED 1938-05-12 21:00:00 NR 17.7637 122.512 main 42 42 __________P___ -1 17.7637 122.512 2 4 65
1938129N10125 1938 25 WP MM NOT_NAMED 1938-05-12 22:00:00 NR 17.8000 122.600 main 52 52 __________O___ -1 17.8000 122.600 2 7 66
1938129N10125 1938 25 WP MM NOT_NAMED 1938-05-13 00:00:00 NR 17.9022 122.844 main 67 77 __________P___ -1 17.9022 122.844 2 9 67
1938129N10125 1938 25 WP MM NOT_NAMED 1938-05-13 03:00:00 NR 18.0806 123.299 main 107 107 __________P___ -1 18.0806 123.299 2 10 68
1938129N10125 1938 25 WP MM NOT_NAMED 1938-05-13 06:00:00 NR 18.2695 123.814 main 158 158 __________P___ -1 18.2695 123.814 2 11 70
1938129N10125 1938 25 WP MM NOT_NAMED 1938-05-13 09:00:00 NR 18.4470 124.334 main 211 221 __________P___ -1 18.4470 124.334 2 10 71
1938129N10125 1938 25 WP MM NOT_NAMED 1938-05-13 10:00:00 NR 18.5000 124.500 main 232 232 __________O___ -1 18.5000 124.500 2 9 72
1938129N10125 1938 25 WP MM NOT_NAMED 1938-05-13 12:00:00 NR 18.5835 124.787 main 264 264 __________P___ -1 18.5835 124.787 2 8 74
1938129N10125 1938 25 WP MM NOT_NAMED 1938-05-13 15:00:00 NR 18.6900 125.198 main 307 307 __________P___ -1 18.6900 125.198 2 8 75
1938129N10125 1938 25 WP MM NOT_NAMED 1938-05-13 18:00:00 NR 18.7825 125.591 main 350 350 __________P___ -1 18.7825 125.591 2 8 76
1938129N10125 1938 25 WP MM NOT_NAMED 1938-05-13 21:00:00 NR 18.8702 125.974 main 393 393 __________P___ -1 18.8702 125.974 2 7 76
1938129N10125 1938 25 WP MM NOT_NAMED 1938-05-13 22:00:00 NR 18.9000 126.100 main 404 404 __________O___ -1 18.9000 126.100 3 7 75
1938129N10125 1938 25 WP MM NOT_NAMED 1938-05-14 00:00:00 NR 18.9690 126.353 main 437 437 __________P___ -1 18.9690 126.353 3 7 74
1938129N10125 1938 25 WP MM NOT_NAMED 1938-05-14 03:00:00 NR 19.0728 126.726 main 469 469 __________P___ -1 19.0728 126.726 3 7 74
1938129N10125 1938 25 WP MM NOT_NAMED 1938-05-14 06:00:00 NR 19.1741 127.098 main 513 513 __________P___ -1 19.1741 127.098 3 7 74
1938129N10125 1938 25 WP MM NOT_NAMED 1938-05-14 09:00:00 NR 19.2699 127.473 main 556 556 __________P___ -1 19.2699 127.473 3 7 75
1938129N10125 1938 25 WP MM NOT_NAMED 1938-05-14 10:00:00 NR 19.3000 127.600 main 566 566 __________O___ -1 19.3000 127.600 4 8 80
1938129N10125 1938 25 WP MM NOT_NAMED 1938-05-14 12:00:00 NR 19.3375 127.880 main 597 597 __________P___ -1 19.3375 127.880 4 8 83
1938129N10125 1938 25 WP MM NOT_NAMED 1938-05-14 15:00:00 NR 19.3870 128.306 main 641 641 __________P___ -1 19.3870 128.306 4 8 82
1938129N10125 1938 25 WP MM NOT_NAMED 1938-05-14 18:00:00 NR 19.4504 128.717 main 684 684 __________P___ -1 19.4504 128.717 4 8 77
1938129N10125 1938 25 WP MM NOT_NAMED 1938-05-14 21:00:00 NR 19.5529 129.089 main 727 727 __________P___ -1 19.5529 129.089 4 7 72
1938129N10125 1938 25 WP MM NOT_NAMED 1938-05-14 22:00:00 NR 19.6000 129.200 main 737 737 __________O___ -1 19.6000 129.200 4 7 60
1938129N10125 1938 25 WP MM NOT_NAMED 1938-05-15 00:00:00 NR 19.7264 129.406 main 760 760 __________P___ -1 19.7264 129.406 4 7 51
1938129N10125 1938 25 WP MM NOT_NAMED 1938-05-15 03:00:00 NR 19.9605 129.670 main 797 797 __________P___ -1 19.9605 129.670 4 7 42
1938129N10125 1938 25 WP MM NOT_NAMED 1938-05-15 06:00:00 NR 20.2284 129.885 main 822 822 __________P___ -1 20.2284 129.885 4 7 33
1938129N10125 1938 25 WP MM NOT_NAMED 1938-05-15 09:00:00 NR 20.5080 130.054 main 850 850 __________P___ -1 20.5080 130.054 4 6 28
1938129N10125 1938 25 WP MM NOT_NAMED 1938-05-15 10:00:00 NR 20.6000 130.100 main 853 853 __________O___ -1 20.6000 130.100 4 5 31
1938129N10125 1938 25 WP MM NOT_NAMED 1938-05-15 12:00:00 NR 20.7403 130.205 main 866 869 __________P___ -1 20.7403 130.205 4 5 31
1938129N10125 1938 25 WP MM NOT_NAMED 1938-05-15 15:00:00 NR 20.9503 130.325 main 886 886 __________P___ -1 20.9503 130.325 4 5 22
1938129N10125 1938 25 WP MM NOT_NAMED 1938-05-15 18:00:00 NR 21.1875 130.395 main 903 903 __________P___ -1 21.1875 130.395 4 5 8
1938129N10125 1938 25 WP MM NOT_NAMED 1938-05-15 21:00:00 NR 21.4831 130.409 main 914 914 __________P___ -1 21.4831 130.409 4 6 3
1938129N10125 1938 25 WP MM NOT_NAMED 1938-05-15 22:00:00 NR 21.6000 130.400 main 918 915 __________O___ -1 21.6000 130.400 2 8 355
1938129N10125 1938 25 WP MM NOT_NAMED 1938-05-16 00:00:00 NR 21.8711 130.360 main 915 881 __________P___ -1 21.8711 130.360 2 9 350
1938129N10125 1938 25 WP MM NOT_NAMED 1938-05-16 03:00:00 NR 22.3406 130.250 main 881 853 __________P___ -1 22.3406 130.250 2 10 347
1938129N10125 1938 25 WP MM NOT_NAMED 1938-05-16 06:00:00 NR 22.8634 130.103 main 853 820 __________P___ -1 22.8634 130.103 2 11 345
1938129N10125 1938 25 WP MM NOT_NAMED 1938-05-16 09:00:00 NR 23.4144 129.948 main 820 815 __________P___ -1 23.4144 129.948 2 11 346
1938129N10125 1938 25 WP MM NOT_NAMED 1938-05-16 10:00:00 NR 23.6000 129.900 main 815 786 __________O___ -1 23.6000 129.900 2 11 347
1938129N10125 1938 25 WP MM NOT_NAMED 1938-05-16 12:00:00 NR 23.9699 129.813 main 786 732 __________P___ -1 23.9699 129.813 2 11 349
1938129N10125 1938 25 WP MM NOT_NAMED 1938-05-16 15:00:00 NR 24.5216 129.702 main 732 667 __________P___ -1 24.5216 129.702 2 11 350
1938129N10125 1938 25 WP MM NOT_NAMED 1938-05-16 18:00:00 NR 25.0705 129.610 main 667 614 __________P___ -1 25.0705 129.610 2 11 352
1938129N10125 1938 25 WP MM NOT_NAMED 1938-05-16 21:00:00 NR 25.6177 129.527 main 614 592 __________P___ -1 25.6177 129.527 2 11 352
1938129N10125 1938 25 WP MM NOT_NAMED 1938-05-16 22:00:00 NR 25.8000 129.500 main 592 __________O___ -1 25.8000 129.500 2 11 0

Digital Typhoon Data and Search

About IBTrACS Database

This database is a web-friendly format of International Best Track Archive for Climate Stewardship (IBTrACS), a global best track data archive curated by NOAA dating back to 1842.

Updated: 2021-10-25